SVYA weather

Yaure Airport
Barinas, Venezuela

Public forecast

Using degrees Celsius for public forecast. Weather courtesy of forecast.io.

METAR (pilot weather report)

Report is more than 6 hours old.

Closest report is Guasdalito Airport, 38.8 nm (71.9 km) SE. Retrieved 2018/12/06 00:00 UTC (5 months ago):

SVGD 060000Z /////KT 9999 FEW017 27/20 Q1010

TAF (pilot weather forecast)

Closest forecast is San Antonio Del Tachira Airport, 72.2 nm (133.6 km) W. Retrieved 2019/04/25 06:03 UTC (2 hours ago):

TAF TAF SVSA 250400Z 2506/2606 36004KT 9999 SCT023 TX32/1900Z TN21/0800Z TEMPO 2506/2510 36004KT 9000 DZ BKN020